SWA3651 TJSJ-KMCO
Flight info
| Callsign | SWA3651 |
|---|---|
| Flight time | 2h 46m |
| Altitude | 34000 |
| Route | ACONY3 SAPPO Y280 OCTAL MUNGI1 |
| Aircraft | B738/M-SDE2E3FGHIRWXY/LB1 |
Departure
| Time | 2026-05-04 20:21 |
|---|---|
| Airport | Luis Munoz Marin International Airport (TJSJ) |
Arrival
| Time | 2026-05-04 23:08 |
|---|---|
| Airport | Orlando International Airport (KMCO) |
| Time | Latitude | Longitude | Altitude | Speed | Heading |
|---|---|---|---|---|---|
| 2026-05-04 19:55 | 18.43709 | -66.00221 | 16 ft | 0 kts | 182° |
| 2026-05-04 20:07 | 18.43710 | -66.00221 | 16 ft | 0 kts | 182° |
| 2026-05-04 20:11 | 18.43725 | -66.00221 | 16 ft | 4 kts | 175° |
| 2026-05-04 20:12 | 18.43742 | -66.00224 | 16 ft | 4 kts | 153° |
| 2026-05-04 20:12 | 18.43755 | -66.00239 | 20 ft | 3 kts | 82° |
| 2026-05-04 20:12 | 18.43759 | -66.00213 | 18 ft | 4 kts | 81° |
| 2026-05-04 20:12 | 18.43762 | -66.00194 | 16 ft | 4 kts | 80° |
| 2026-05-04 20:13 | 18.43767 | -66.00167 | 16 ft | 4 kts | 78° |
| 2026-05-04 20:13 | 18.43773 | -66.00139 | 16 ft | 3 kts | 77° |
| 2026-05-04 20:13 | 18.43779 | -66.00118 | 18 ft | 4 kts | 69° |
| 2026-05-04 20:13 | 18.43788 | -66.00096 | 16 ft | 1 kts | 67° |
| 2026-05-04 20:15 | 18.43791 | -66.00089 | 16 ft | 4 kts | 67° |
| 2026-05-04 20:15 | 18.43824 | -66.00051 | 16 ft | 10 kts | 11° |
| 2026-05-04 20:16 | 18.43915 | -66.00081 | 16 ft | 17 kts | 337° |
| 2026-05-04 20:16 | 18.44030 | -66.00133 | 16 ft | 18 kts | 337° |
| 2026-05-04 20:16 | 18.44145 | -66.00184 | 16 ft | 17 kts | 337° |
| 2026-05-04 20:16 | 18.44239 | -66.00236 | 16 ft | 14 kts | 331° |
| 2026-05-04 20:17 | 18.44238 | -66.00301 | 16 ft | 10 kts | 245° |
| 2026-05-04 20:17 | 18.44207 | -66.00379 | 17 ft | 13 kts | 246° |
| 2026-05-04 20:17 | 18.44165 | -66.00469 | 16 ft | 15 kts | 236° |
| 2026-05-04 20:17 | 18.44096 | -66.00571 | 16 ft | 18 kts | 239° |
| 2026-05-04 20:18 | 18.44048 | -66.00687 | 18 ft | 17 kts | 247° |
| 2026-05-04 20:18 | 18.44003 | -66.00800 | 17 ft | 16 kts | 246° |
| 2026-05-04 20:18 | 18.43958 | -66.00908 | 16 ft | 16 kts | 246° |
| 2026-05-04 20:18 | 18.43916 | -66.01012 | 18 ft | 15 kts | 247° |
| 2026-05-04 20:19 | 18.43874 | -66.01115 | 16 ft | 15 kts | 249° |
| 2026-05-04 20:19 | 18.43839 | -66.01218 | 16 ft | 15 kts | 249° |
| 2026-05-04 20:19 | 18.43808 | -66.01318 | 16 ft | 14 kts | 264° |
| 2026-05-04 20:19 | 18.43787 | -66.01415 | 16 ft | 13 kts | 251° |
| 2026-05-04 20:20 | 18.43761 | -66.01507 | 18 ft | 13 kts | 276° |
| 2026-05-04 20:20 | 18.43825 | -66.01557 | 16 ft | 13 kts | 17° |
| 2026-05-04 20:20 | 18.43885 | -66.01463 | 16 ft | 31 kts | 66° |
| 2026-05-04 20:20 | 18.44064 | -66.01022 | 16 ft | 99 kts | 67° |
| 2026-05-04 20:21 | 18.44413 | -66.00163 | 19 ft | 154 kts | 67° |
| 2026-05-04 20:21 | 18.44878 | -65.99030 | 390 ft | 170 kts | 68° |
| 2026-05-04 20:21 | 18.46645 | -65.97434 | 1576 ft | 204 kts | 2° |
| 2026-05-04 20:22 | 18.48030 | -65.97815 | 2245 ft | 214 kts | 339° |
| 2026-05-04 20:22 | 18.49492 | -65.98447 | 2464 ft | 241 kts | 336° |
| 2026-05-04 20:22 | 18.50919 | -65.99525 | 2612 ft | 267 kts | 313° |
| 2026-05-04 20:22 | 18.52201 | -66.01039 | 2991 ft | 283 kts | 311° |
| 2026-05-04 20:23 | 18.53516 | -66.02610 | 3755 ft | 285 kts | 310° |
| 2026-05-04 20:23 | 18.54830 | -66.04170 | 4610 ft | 286 kts | 310° |
| 2026-05-04 20:23 | 18.56166 | -66.05739 | 5399 ft | 288 kts | 310° |
| 2026-05-04 20:23 | 18.57496 | -66.07289 | 6155 ft | 291 kts | 311° |
| 2026-05-04 20:24 | 18.58867 | -66.08876 | 6846 ft | 296 kts | 311° |
| 2026-05-04 20:24 | 18.60268 | -66.10490 | 7493 ft | 298 kts | 311° |
| 2026-05-04 20:24 | 18.61671 | -66.12101 | 8250 ft | 300 kts | 311° |
| 2026-05-04 20:24 | 18.63103 | -66.13744 | 8828 ft | 308 kts | 311° |
| 2026-05-04 20:25 | 18.64551 | -66.15405 | 9660 ft | 305 kts | 311° |
| 2026-05-04 20:25 | 18.65986 | -66.17049 | 10362 ft | 307 kts | 311° |
| 2026-05-04 20:25 | 18.67480 | -66.18763 | 10562 ft | 328 kts | 312° |
| 2026-05-04 20:25 | 18.69075 | -66.20590 | 10726 ft | 348 kts | 311° |
| 2026-05-04 20:26 | 18.70754 | -66.22513 | 10922 ft | 364 kts | 311° |
| 2026-05-04 20:26 | 18.72492 | -66.24504 | 11387 ft | 370 kts | 312° |
| 2026-05-04 20:26 | 18.74235 | -66.26501 | 12011 ft | 371 kts | 311° |
| 2026-05-04 20:26 | 18.75995 | -66.28518 | 12590 ft | 374 kts | 311° |
| 2026-05-04 20:27 | 18.77758 | -66.30540 | 13212 ft | 376 kts | 311° |
| 2026-05-04 20:27 | 18.79535 | -66.32577 | 13865 ft | 377 kts | 311° |
| 2026-05-04 20:27 | 18.81313 | -66.34618 | 14432 ft | 378 kts | 311° |
| 2026-05-04 20:27 | 18.83097 | -66.36665 | 15036 ft | 379 kts | 310° |
| 2026-05-04 20:28 | 18.84873 | -66.38704 | 15746 ft | 376 kts | 310° |
| 2026-05-04 20:28 | 18.86645 | -66.40740 | 16309 ft | 378 kts | 310° |
| 2026-05-04 20:28 | 18.88425 | -66.42785 | 16951 ft | 377 kts | 310° |
| 2026-05-04 20:28 | 18.90207 | -66.44834 | 17500 ft | 381 kts | 310° |
| 2026-05-04 20:29 | 18.92009 | -66.46906 | 17995 ft | 385 kts | 310° |
| 2026-05-04 20:29 | 18.93860 | -66.48955 | 18531 ft | 386 kts | 313° |
| 2026-05-04 20:29 | 18.95773 | -66.50912 | 18949 ft | 390 kts | 314° |
| 2026-05-04 20:29 | 18.97763 | -66.52896 | 19297 ft | 396 kts | 314° |
| 2026-05-04 20:30 | 18.99783 | -66.54909 | 19672 ft | 400 kts | 314° |
| 2026-05-04 20:30 | 19.01812 | -66.56945 | 20084 ft | 404 kts | 314° |
| 2026-05-04 20:30 | 19.03850 | -66.59006 | 20485 ft | 407 kts | 314° |
| 2026-05-04 20:30 | 19.05898 | -66.61085 | 20857 ft | 411 kts | 314° |
| 2026-05-04 20:31 | 19.07965 | -66.63210 | 21198 ft | 415 kts | 312° |
| 2026-05-04 20:31 | 19.09888 | -66.65496 | 21601 ft | 417 kts | 308° |
| 2026-05-04 20:31 | 19.11746 | -66.67871 | 21928 ft | 421 kts | 307° |
| 2026-05-04 20:31 | 19.13595 | -66.70295 | 22265 ft | 425 kts | 306° |
| 2026-05-04 20:32 | 19.15458 | -66.72748 | 22580 ft | 430 kts | 306° |
| 2026-05-04 20:32 | 19.17342 | -66.75216 | 22879 ft | 434 kts | 307° |
| 2026-05-04 20:32 | 19.19262 | -66.77715 | 23182 ft | 439 kts | 307° |
| 2026-05-04 20:32 | 19.21198 | -66.80223 | 23472 ft | 443 kts | 308° |
| 2026-05-04 20:33 | 19.23160 | -66.82755 | 23810 ft | 444 kts | 308° |
| 2026-05-04 20:33 | 19.25120 | -66.85281 | 24136 ft | 446 kts | 308° |
| 2026-05-04 20:33 | 19.27094 | -66.87821 | 24449 ft | 447 kts | 308° |
| 2026-05-04 20:33 | 19.29071 | -66.90363 | 24819 ft | 447 kts | 308° |
| 2026-05-04 20:34 | 19.31047 | -66.92907 | 25173 ft | 447 kts | 308° |
| 2026-05-04 20:34 | 19.33023 | -66.95453 | 25509 ft | 448 kts | 308° |
| 2026-05-04 20:34 | 19.35002 | -66.98003 | 25830 ft | 449 kts | 308° |
| 2026-05-04 20:34 | 19.36989 | -67.00565 | 26149 ft | 449 kts | 308° |
| 2026-05-04 20:35 | 19.38947 | -67.03094 | 26443 ft | 450 kts | 308° |
| 2026-05-04 20:35 | 19.40938 | -67.05664 | 26724 ft | 452 kts | 308° |
| 2026-05-04 20:35 | 19.42930 | -67.08237 | 27023 ft | 453 kts | 308° |
| 2026-05-04 20:35 | 19.44928 | -67.10817 | 27331 ft | 453 kts | 308° |
| 2026-05-04 20:36 | 19.46934 | -67.13409 | 27605 ft | 454 kts | 308° |
| 2026-05-04 20:36 | 19.48939 | -67.16001 | 27895 ft | 455 kts | 308° |
| 2026-05-04 20:36 | 19.50948 | -67.18601 | 28141 ft | 457 kts | 308° |
| 2026-05-04 20:36 | 19.52966 | -67.21212 | 28371 ft | 459 kts | 308° |
| 2026-05-04 20:37 | 19.54989 | -67.23832 | 28633 ft | 459 kts | 308° |
| 2026-05-04 20:37 | 19.57014 | -67.26455 | 28912 ft | 460 kts | 308° |
| 2026-05-04 20:37 | 19.59041 | -67.29082 | 29162 ft | 461 kts | 308° |
| 2026-05-04 20:37 | 19.61068 | -67.31710 | 29398 ft | 462 kts | 308° |
| 2026-05-04 20:38 | 19.63108 | -67.34356 | 29638 ft | 463 kts | 308° |
| 2026-05-04 20:38 | 19.65148 | -67.37003 | 29981 ft | 461 kts | 308° |
| 2026-05-04 20:38 | 19.67169 | -67.39626 | 30382 ft | 457 kts | 308° |
| 2026-05-04 20:38 | 19.69175 | -67.42232 | 30701 ft | 455 kts | 308° |
| 2026-05-04 20:39 | 19.71181 | -67.44839 | 30912 ft | 457 kts | 308° |
| 2026-05-04 20:39 | 19.73192 | -67.47454 | 31101 ft | 458 kts | 307° |
| 2026-05-04 20:39 | 19.75210 | -67.50078 | 31361 ft | 457 kts | 307° |
| 2026-05-04 20:39 | 19.77196 | -67.52663 | 31658 ft | 456 kts | 307° |
| 2026-05-04 20:40 | 19.79200 | -67.55271 | 31937 ft | 456 kts | 307° |
| 2026-05-04 20:40 | 19.81202 | -67.57879 | 32197 ft | 455 kts | 307° |
| 2026-05-04 20:40 | 19.83208 | -67.60492 | 32456 ft | 455 kts | 307° |
| 2026-05-04 20:40 | 19.85203 | -67.63092 | 32732 ft | 455 kts | 307° |
| 2026-05-04 20:41 | 19.87200 | -67.65697 | 33006 ft | 455 kts | 307° |
| 2026-05-04 20:41 | 19.89196 | -67.68301 | 33283 ft | 454 kts | 307° |
| 2026-05-04 20:41 | 19.91191 | -67.70905 | 33544 ft | 454 kts | 307° |
| 2026-05-04 20:41 | 19.93184 | -67.73508 | 33817 ft | 454 kts | 307° |
| 2026-05-04 20:42 | 19.95176 | -67.76109 | 34081 ft | 453 kts | 307° |
| 2026-05-04 20:42 | 19.97164 | -67.78708 | 34340 ft | 452 kts | 307° |
| 2026-05-04 20:42 | 19.99147 | -67.81300 | 34680 ft | 449 kts | 307° |
| 2026-05-04 20:42 | 20.01110 | -67.83866 | 35042 ft | 445 kts | 307° |
| 2026-05-04 20:43 | 20.03054 | -67.86410 | 35410 ft | 441 kts | 306° |
| 2026-05-04 20:43 | 20.04958 | -67.88902 | 35713 ft | 439 kts | 306° |
| 2026-05-04 20:43 | 20.06882 | -67.91423 | 36004 ft | 437 kts | 306° |
| 2026-05-04 20:43 | 20.08793 | -67.93927 | 36285 ft | 435 kts | 306° |
| 2026-05-04 20:44 | 20.10696 | -67.96422 | 36595 ft | 432 kts | 306° |
| 2026-05-04 20:44 | 20.12584 | -67.98897 | 36894 ft | 429 kts | 306° |
| 2026-05-04 20:44 | 20.14461 | -68.01361 | 37165 ft | 427 kts | 306° |
| 2026-05-04 20:44 | 20.16326 | -68.03809 | 37430 ft | 426 kts | 306° |
| 2026-05-04 20:45 | 20.18187 | -68.06253 | 37688 ft | 424 kts | 306° |
| 2026-05-04 20:45 | 20.20039 | -68.08686 | 37954 ft | 422 kts | 306° |
| 2026-05-04 20:45 | 20.23747 | -68.13562 | 38032 ft | 425 kts | 306° |
| 2026-05-04 20:46 | 20.27451 | -68.18436 | 38027 ft | 421 kts | 306° |
| 2026-05-04 20:46 | 20.31127 | -68.23275 | 38006 ft | 418 kts | 306° |
| 2026-05-04 20:47 | 20.34766 | -68.28072 | 38025 ft | 415 kts | 306° |
| 2026-05-04 20:47 | 20.38389 | -68.32853 | 38023 ft | 414 kts | 306° |
| 2026-05-04 20:48 | 20.42006 | -68.37627 | 38031 ft | 414 kts | 306° |
| 2026-05-04 20:48 | 20.45407 | -68.42521 | 38026 ft | 412 kts | 300° |
| 2026-05-04 20:49 | 20.48452 | -68.47757 | 38022 ft | 413 kts | 299° |
| 2026-05-04 20:49 | 20.51447 | -68.52961 | 38040 ft | 415 kts | 299° |
| 2026-05-04 20:50 | 20.54501 | -68.58211 | 38015 ft | 417 kts | 299° |
| 2026-05-04 20:50 | 20.57583 | -68.63477 | 38020 ft | 419 kts | 299° |
| 2026-05-04 20:51 | 20.60678 | -68.68763 | 38028 ft | 420 kts | 299° |
| 2026-05-04 20:51 | 20.63780 | -68.74063 | 38009 ft | 421 kts | 299° |
| 2026-05-04 20:52 | 20.66883 | -68.79373 | 38009 ft | 421 kts | 299° |
| 2026-05-04 20:52 | 20.69984 | -68.84683 | 38009 ft | 421 kts | 299° |
| 2026-05-04 20:53 | 20.73078 | -68.89987 | 38011 ft | 420 kts | 299° |
| 2026-05-04 20:53 | 20.76163 | -68.95281 | 38008 ft | 419 kts | 299° |
| 2026-05-04 20:54 | 20.79237 | -69.00561 | 38020 ft | 418 kts | 299° |
| 2026-05-04 20:54 | 20.82300 | -69.05827 | 38005 ft | 416 kts | 299° |
| 2026-05-04 20:55 | 20.85351 | -69.11078 | 38006 ft | 415 kts | 299° |
| 2026-05-04 20:55 | 20.88394 | -69.16318 | 38007 ft | 414 kts | 299° |
| 2026-05-04 20:56 | 20.91426 | -69.21531 | 38015 ft | 413 kts | 299° |
| 2026-05-04 20:56 | 20.94434 | -69.26705 | 38003 ft | 412 kts | 299° |
| 2026-05-04 20:57 | 20.97459 | -69.31915 | 38006 ft | 411 kts | 298° |
| 2026-05-04 20:57 | 21.00480 | -69.37125 | 38006 ft | 411 kts | 298° |
| 2026-05-04 20:58 | 21.03493 | -69.42326 | 38007 ft | 412 kts | 298° |
| 2026-05-04 20:58 | 21.06511 | -69.47540 | 38006 ft | 412 kts | 298° |
| 2026-05-04 20:59 | 21.09536 | -69.52771 | 38009 ft | 413 kts | 298° |
| 2026-05-04 20:59 | 21.12561 | -69.58007 | 38003 ft | 414 kts | 298° |
| 2026-05-04 21:00 | 21.15076 | -69.62365 | 38005 ft | 414 kts | 298° |
| 2026-05-04 21:00 | 21.18600 | -69.68476 | 38002 ft | 415 kts | 298° |
| 2026-05-04 21:01 | 21.21142 | -69.72888 | 38011 ft | 415 kts | 298° |
| 2026-05-04 21:01 | 21.24182 | -69.78170 | 38002 ft | 415 kts | 298° |
| 2026-05-04 21:02 | 21.27211 | -69.83434 | 37999 ft | 415 kts | 298° |
| 2026-05-04 21:02 | 21.30237 | -69.88700 | 38004 ft | 414 kts | 298° |
| 2026-05-04 21:03 | 21.33258 | -69.93962 | 37997 ft | 414 kts | 298° |
| 2026-05-04 21:03 | 21.36271 | -69.99216 | 38002 ft | 413 kts | 298° |
| 2026-05-04 21:04 | 21.39276 | -70.04463 | 38003 ft | 412 kts | 298° |
| 2026-05-04 21:04 | 21.42259 | -70.09675 | 37999 ft | 412 kts | 298° |
| 2026-05-04 21:05 | 21.45252 | -70.14909 | 38000 ft | 411 kts | 298° |
| 2026-05-04 21:05 | 21.48242 | -70.20145 | 38008 ft | 411 kts | 298° |
| 2026-05-04 21:06 | 21.51226 | -70.25373 | 38004 ft | 410 kts | 298° |
| 2026-05-04 21:06 | 21.54186 | -70.30566 | 38002 ft | 410 kts | 298° |
| 2026-05-04 21:07 | 21.57184 | -70.35830 | 37999 ft | 410 kts | 298° |
| 2026-05-04 21:07 | 21.60140 | -70.41024 | 38009 ft | 410 kts | 297° |
| 2026-05-04 21:08 | 21.63114 | -70.46256 | 38000 ft | 410 kts | 297° |
| 2026-05-04 21:08 | 21.66084 | -70.51485 | 37999 ft | 409 kts | 297° |
| 2026-05-04 21:09 | 21.69045 | -70.56704 | 38009 ft | 409 kts | 297° |
| 2026-05-04 21:09 | 21.72008 | -70.61931 | 38000 ft | 409 kts | 297° |
| 2026-05-04 21:10 | 21.74965 | -70.67153 | 38005 ft | 408 kts | 297° |
| 2026-05-04 21:10 | 21.77916 | -70.72369 | 38005 ft | 407 kts | 297° |
| 2026-05-04 21:11 | 21.80855 | -70.77570 | 37999 ft | 407 kts | 297° |
| 2026-05-04 21:11 | 21.83794 | -70.82774 | 38005 ft | 407 kts | 297° |
| 2026-05-04 21:12 | 21.86709 | -70.87943 | 38005 ft | 406 kts | 297° |
| 2026-05-04 21:12 | 21.89649 | -70.93159 | 38007 ft | 407 kts | 297° |
| 2026-05-04 21:13 | 21.92584 | -70.98373 | 38003 ft | 407 kts | 297° |
| 2026-05-04 21:13 | 21.95515 | -71.03584 | 38002 ft | 407 kts | 297° |
| 2026-05-04 21:14 | 21.98445 | -71.08798 | 38020 ft | 407 kts | 297° |
| 2026-05-04 21:14 | 22.01374 | -71.14016 | 38005 ft | 407 kts | 297° |
| 2026-05-04 21:15 | 22.04290 | -71.19216 | 38004 ft | 407 kts | 297° |
| 2026-05-04 21:15 | 22.07214 | -71.24433 | 37999 ft | 407 kts | 297° |
| 2026-05-04 21:16 | 22.10137 | -71.29656 | 37992 ft | 407 kts | 297° |
| 2026-05-04 21:16 | 22.13058 | -71.34879 | 38001 ft | 407 kts | 297° |
| 2026-05-04 21:17 | 22.15976 | -71.40103 | 38005 ft | 406 kts | 297° |
| 2026-05-04 21:17 | 22.18875 | -71.45299 | 38002 ft | 406 kts | 297° |
| 2026-05-04 21:18 | 22.21805 | -71.50553 | 37998 ft | 406 kts | 297° |
| 2026-05-04 21:18 | 22.24696 | -71.55744 | 38011 ft | 406 kts | 297° |
| 2026-05-04 21:19 | 22.27608 | -71.60977 | 38008 ft | 406 kts | 296° |
| 2026-05-04 21:19 | 22.30511 | -71.66199 | 38001 ft | 406 kts | 296° |
| 2026-05-04 21:20 | 22.33412 | -71.71422 | 38000 ft | 405 kts | 296° |
| 2026-05-04 21:20 | 22.36308 | -71.76643 | 38001 ft | 405 kts | 296° |
| 2026-05-04 21:21 | 22.39200 | -71.81861 | 38008 ft | 405 kts | 296° |
| 2026-05-04 21:21 | 22.42087 | -71.87075 | 38005 ft | 404 kts | 296° |
| 2026-05-04 21:22 | 22.44963 | -71.92275 | 38015 ft | 403 kts | 296° |
| 2026-05-04 21:22 | 22.47836 | -71.97474 | 38002 ft | 402 kts | 296° |
| 2026-05-04 21:23 | 22.50694 | -72.02650 | 38004 ft | 401 kts | 296° |
| 2026-05-04 21:23 | 22.53548 | -72.07826 | 38003 ft | 400 kts | 296° |
| 2026-05-04 21:24 | 22.56390 | -72.12985 | 38001 ft | 399 kts | 296° |
| 2026-05-04 21:24 | 22.59210 | -72.18109 | 38002 ft | 398 kts | 296° |
| 2026-05-04 21:25 | 22.62041 | -72.23259 | 38003 ft | 398 kts | 296° |
| 2026-05-04 21:25 | 22.64878 | -72.28423 | 38007 ft | 398 kts | 296° |
| 2026-05-04 21:26 | 22.67696 | -72.33559 | 37989 ft | 399 kts | 296° |
| 2026-05-04 21:26 | 22.70528 | -72.38724 | 38004 ft | 399 kts | 296° |
| 2026-05-04 21:27 | 22.73362 | -72.43900 | 38003 ft | 400 kts | 296° |
| 2026-05-04 21:27 | 22.76198 | -72.49084 | 38005 ft | 400 kts | 296° |
| 2026-05-04 21:28 | 22.79038 | -72.54280 | 38007 ft | 401 kts | 296° |
| 2026-05-04 21:28 | 22.81879 | -72.59484 | 37996 ft | 401 kts | 296° |
| 2026-05-04 21:29 | 22.84724 | -72.64700 | 37999 ft | 401 kts | 295° |
| 2026-05-04 21:29 | 22.87564 | -72.69913 | 37995 ft | 401 kts | 295° |
| 2026-05-04 21:30 | 22.90401 | -72.75124 | 38000 ft | 401 kts | 295° |
| 2026-05-04 21:30 | 22.93233 | -72.80334 | 37997 ft | 401 kts | 295° |
| 2026-05-04 21:31 | 22.97473 | -72.88141 | 37994 ft | 400 kts | 295° |
| 2026-05-04 21:32 | 23.00294 | -72.93342 | 37994 ft | 400 kts | 295° |
| 2026-05-04 21:32 | 23.03109 | -72.98539 | 38002 ft | 399 kts | 295° |
| 2026-05-04 21:33 | 23.05902 | -73.03701 | 37994 ft | 399 kts | 295° |
| 2026-05-04 21:33 | 23.08708 | -73.08896 | 37998 ft | 399 kts | 295° |
| 2026-05-04 21:34 | 23.11509 | -73.14084 | 37998 ft | 398 kts | 295° |
| 2026-05-04 21:34 | 23.14314 | -73.19286 | 37994 ft | 399 kts | 295° |
| 2026-05-04 21:35 | 23.17118 | -73.24491 | 38003 ft | 399 kts | 295° |
| 2026-05-04 21:35 | 23.19919 | -73.29697 | 37998 ft | 399 kts | 295° |
| 2026-05-04 21:36 | 23.22719 | -73.34906 | 37996 ft | 399 kts | 295° |
| 2026-05-04 21:36 | 23.25518 | -73.40118 | 37995 ft | 399 kts | 295° |
| 2026-05-04 21:37 | 23.28314 | -73.45328 | 37990 ft | 399 kts | 295° |
| 2026-05-04 21:37 | 23.31086 | -73.50501 | 37995 ft | 398 kts | 295° |
| 2026-05-04 21:38 | 23.33874 | -73.55708 | 37997 ft | 398 kts | 295° |
| 2026-05-04 21:38 | 23.36661 | -73.60920 | 37994 ft | 398 kts | 295° |
| 2026-05-04 21:39 | 23.39441 | -73.66124 | 38012 ft | 397 kts | 295° |
| 2026-05-04 21:39 | 23.42218 | -73.71328 | 37999 ft | 397 kts | 295° |
| 2026-05-04 21:40 | 23.44989 | -73.76526 | 37988 ft | 397 kts | 295° |
| 2026-05-04 21:40 | 23.47761 | -73.81731 | 37996 ft | 396 kts | 294° |
| 2026-05-04 21:41 | 23.50521 | -73.86919 | 37992 ft | 396 kts | 294° |
| 2026-05-04 21:41 | 23.53286 | -73.92122 | 37991 ft | 396 kts | 294° |
| 2026-05-04 21:42 | 23.56039 | -73.97307 | 37987 ft | 396 kts | 294° |
| 2026-05-04 21:42 | 23.58791 | -74.02494 | 38002 ft | 395 kts | 294° |
| 2026-05-04 21:43 | 23.61542 | -74.07679 | 37990 ft | 395 kts | 294° |
| 2026-05-04 21:43 | 23.64287 | -74.12859 | 37992 ft | 394 kts | 294° |
| 2026-05-04 21:44 | 23.67007 | -74.18000 | 37991 ft | 394 kts | 294° |
| 2026-05-04 21:44 | 23.69740 | -74.23170 | 37992 ft | 393 kts | 294° |
| 2026-05-04 21:45 | 23.72468 | -74.28337 | 37994 ft | 393 kts | 294° |
| 2026-05-04 21:45 | 23.75193 | -74.33504 | 37991 ft | 393 kts | 294° |
| 2026-05-04 21:46 | 23.77914 | -74.38669 | 37997 ft | 392 kts | 294° |
| 2026-05-04 21:46 | 23.80637 | -74.43842 | 37990 ft | 392 kts | 294° |
| 2026-05-04 21:47 | 23.83357 | -74.49016 | 37987 ft | 392 kts | 294° |
| 2026-05-04 21:47 | 23.86069 | -74.54179 | 37987 ft | 392 kts | 294° |
| 2026-05-04 21:48 | 23.88769 | -74.59326 | 37993 ft | 393 kts | 294° |
| 2026-05-04 21:48 | 23.91492 | -74.64523 | 38034 ft | 395 kts | 294° |
| 2026-05-04 21:49 | 23.94223 | -74.69739 | 38013 ft | 395 kts | 294° |
| 2026-05-04 21:49 | 23.96950 | -74.74951 | 38014 ft | 394 kts | 294° |
| 2026-05-04 21:50 | 23.99212 | -74.79277 | 38009 ft | 394 kts | 294° |
| 2026-05-04 21:50 | 24.01927 | -74.84479 | 37998 ft | 393 kts | 294° |
| 2026-05-04 21:51 | 24.04631 | -74.89664 | 37997 ft | 393 kts | 294° |
| 2026-05-04 21:51 | 24.07337 | -74.94860 | 37982 ft | 392 kts | 293° |
| 2026-05-04 21:52 | 24.10034 | -75.00044 | 37985 ft | 392 kts | 293° |
| 2026-05-04 21:52 | 24.12727 | -75.05224 | 37986 ft | 391 kts | 293° |
| 2026-05-04 21:53 | 24.15401 | -75.10374 | 37988 ft | 391 kts | 293° |
| 2026-05-04 21:53 | 24.18084 | -75.15549 | 37981 ft | 391 kts | 293° |
| 2026-05-04 21:54 | 24.20768 | -75.20729 | 37988 ft | 391 kts | 293° |
| 2026-05-04 21:54 | 24.23449 | -75.25909 | 37982 ft | 391 kts | 293° |
| 2026-05-04 21:55 | 24.26127 | -75.31089 | 37982 ft | 391 kts | 293° |
| 2026-05-04 21:55 | 24.28803 | -75.36271 | 37987 ft | 391 kts | 293° |
| 2026-05-04 21:56 | 24.31483 | -75.41466 | 37982 ft | 391 kts | 293° |
| 2026-05-04 21:56 | 24.34157 | -75.46655 | 37984 ft | 391 kts | 293° |
| 2026-05-04 21:57 | 24.36830 | -75.51847 | 37973 ft | 391 kts | 293° |
| 2026-05-04 21:57 | 24.39500 | -75.57038 | 37977 ft | 389 kts | 293° |
| 2026-05-04 21:58 | 24.42152 | -75.62200 | 37982 ft | 388 kts | 293° |
| 2026-05-04 21:58 | 24.44792 | -75.67346 | 37979 ft | 386 kts | 292° |
| 2026-05-04 21:59 | 24.47423 | -75.72479 | 37981 ft | 385 kts | 292° |
| 2026-05-04 21:59 | 24.50043 | -75.77597 | 37980 ft | 385 kts | 292° |
| 2026-05-04 22:00 | 24.52664 | -75.82723 | 37986 ft | 385 kts | 292° |
| 2026-05-04 22:00 | 24.55265 | -75.87815 | 37984 ft | 385 kts | 292° |
| 2026-05-04 22:01 | 24.57882 | -75.92943 | 37985 ft | 385 kts | 292° |
| 2026-05-04 22:01 | 24.60507 | -75.98093 | 37981 ft | 386 kts | 292° |
| 2026-05-04 22:02 | 24.63132 | -76.03249 | 37982 ft | 387 kts | 292° |
| 2026-05-04 22:02 | 24.65763 | -76.08420 | 37978 ft | 388 kts | 292° |
| 2026-05-04 22:03 | 24.68397 | -76.13603 | 38014 ft | 389 kts | 292° |
| 2026-05-04 22:03 | 24.71039 | -76.18811 | 37991 ft | 390 kts | 292° |
| 2026-05-04 22:04 | 24.73690 | -76.24040 | 37993 ft | 391 kts | 292° |
| 2026-05-04 22:04 | 24.76340 | -76.29271 | 37982 ft | 392 kts | 292° |
| 2026-05-04 22:05 | 24.78996 | -76.34521 | 37977 ft | 393 kts | 292° |
| 2026-05-04 22:05 | 24.81650 | -76.39774 | 37980 ft | 393 kts | 292° |
| 2026-05-04 22:06 | 24.84304 | -76.45032 | 37990 ft | 393 kts | 292° |
| 2026-05-04 22:06 | 24.86956 | -76.50290 | 37976 ft | 393 kts | 292° |
| 2026-05-04 22:07 | 24.89607 | -76.55553 | 37984 ft | 392 kts | 292° |
| 2026-05-04 22:07 | 24.92250 | -76.60808 | 37986 ft | 392 kts | 292° |
| 2026-05-04 22:08 | 24.94874 | -76.66031 | 37978 ft | 391 kts | 292° |
| 2026-05-04 22:08 | 24.97509 | -76.71279 | 37985 ft | 391 kts | 292° |
| 2026-05-04 22:09 | 25.00138 | -76.76524 | 37977 ft | 391 kts | 292° |
| 2026-05-04 22:09 | 25.02763 | -76.81767 | 37972 ft | 390 kts | 292° |
| 2026-05-04 22:10 | 25.05385 | -76.87008 | 38006 ft | 390 kts | 292° |
| 2026-05-04 22:10 | 25.08010 | -76.92263 | 37996 ft | 391 kts | 291° |
| 2026-05-04 22:11 | 25.10630 | -76.97514 | 37979 ft | 391 kts | 291° |
| 2026-05-04 22:11 | 25.13253 | -77.02774 | 37979 ft | 391 kts | 291° |
| 2026-05-04 22:12 | 25.15874 | -77.08038 | 37977 ft | 391 kts | 291° |
| 2026-05-04 22:12 | 25.18494 | -77.13306 | 37982 ft | 391 kts | 291° |
| 2026-05-04 22:13 | 25.21114 | -77.18579 | 37982 ft | 392 kts | 291° |
| 2026-05-04 22:13 | 25.23732 | -77.23856 | 37996 ft | 392 kts | 291° |
| 2026-05-04 22:14 | 25.26352 | -77.29142 | 37988 ft | 392 kts | 291° |
| 2026-05-04 22:14 | 25.28948 | -77.34402 | 37988 ft | 392 kts | 290° |
| 2026-05-04 22:15 | 25.30921 | -77.39931 | 37988 ft | 386 kts | 283° |
| 2026-05-04 22:15 | 25.32713 | -77.45526 | 37981 ft | 386 kts | 284° |
| 2026-05-04 22:16 | 25.34525 | -77.51131 | 37978 ft | 387 kts | 284° |
| 2026-05-04 22:16 | 25.36344 | -77.56737 | 37977 ft | 388 kts | 284° |
| 2026-05-04 22:17 | 25.38165 | -77.62352 | 37985 ft | 388 kts | 284° |
| 2026-05-04 22:17 | 25.39987 | -77.67977 | 37978 ft | 389 kts | 284° |
| 2026-05-04 22:18 | 25.41807 | -77.73603 | 37978 ft | 389 kts | 284° |
| 2026-05-04 22:18 | 25.43538 | -77.79268 | 37978 ft | 387 kts | 281° |
| 2026-05-04 22:19 | 25.44981 | -77.84998 | 37977 ft | 387 kts | 280° |
| 2026-05-04 22:19 | 25.46396 | -77.90743 | 37977 ft | 388 kts | 280° |
| 2026-05-04 22:20 | 25.47815 | -77.96470 | 37978 ft | 388 kts | 280° |
| 2026-05-04 22:20 | 25.49256 | -78.02255 | 37977 ft | 388 kts | 280° |
| 2026-05-04 22:21 | 25.50683 | -78.07978 | 37981 ft | 388 kts | 280° |
| 2026-05-04 22:21 | 25.52116 | -78.13734 | 37983 ft | 388 kts | 280° |
| 2026-05-04 22:22 | 25.53548 | -78.19495 | 37980 ft | 388 kts | 280° |
| 2026-05-04 22:22 | 25.54978 | -78.25260 | 37984 ft | 388 kts | 280° |
| 2026-05-04 22:23 | 25.56407 | -78.31031 | 37983 ft | 388 kts | 280° |
| 2026-05-04 22:23 | 25.57832 | -78.36795 | 37983 ft | 388 kts | 280° |
| 2026-05-04 22:24 | 25.59257 | -78.42571 | 37988 ft | 388 kts | 280° |
| 2026-05-04 22:24 | 25.60678 | -78.48341 | 37985 ft | 388 kts | 280° |
| 2026-05-04 22:25 | 25.62088 | -78.54075 | 37984 ft | 388 kts | 280° |
| 2026-05-04 22:25 | 25.63506 | -78.59853 | 37985 ft | 388 kts | 280° |
| 2026-05-04 22:26 | 25.64920 | -78.65628 | 37983 ft | 388 kts | 280° |
| 2026-05-04 22:26 | 25.66331 | -78.71401 | 37973 ft | 388 kts | 280° |
| 2026-05-04 22:27 | 25.67741 | -78.77178 | 37987 ft | 388 kts | 280° |
| 2026-05-04 22:27 | 25.69150 | -78.82963 | 37990 ft | 388 kts | 280° |
| 2026-05-04 22:28 | 25.70549 | -78.88716 | 37988 ft | 389 kts | 280° |
| 2026-05-04 22:28 | 25.71954 | -78.94509 | 37992 ft | 389 kts | 280° |
| 2026-05-04 22:29 | 25.73359 | -79.00311 | 37999 ft | 390 kts | 280° |
| 2026-05-04 22:29 | 25.74766 | -79.06129 | 37999 ft | 390 kts | 280° |
| 2026-05-04 22:30 | 25.76169 | -79.11944 | 37989 ft | 390 kts | 280° |
| 2026-05-04 22:30 | 25.77570 | -79.17762 | 37997 ft | 391 kts | 280° |
| 2026-05-04 22:31 | 25.78972 | -79.23593 | 37994 ft | 391 kts | 280° |
| 2026-05-04 22:31 | 25.80371 | -79.29424 | 37995 ft | 391 kts | 280° |
| 2026-05-04 22:32 | 25.81759 | -79.35218 | 37999 ft | 391 kts | 280° |
| 2026-05-04 22:32 | 25.83153 | -79.41048 | 37997 ft | 391 kts | 280° |
| 2026-05-04 22:33 | 25.84544 | -79.46882 | 38001 ft | 391 kts | 280° |
| 2026-05-04 22:33 | 25.85935 | -79.52722 | 37997 ft | 391 kts | 280° |
| 2026-05-04 22:34 | 25.87322 | -79.58556 | 37997 ft | 390 kts | 280° |
| 2026-05-04 22:34 | 25.88705 | -79.64387 | 38010 ft | 390 kts | 280° |
| 2026-05-04 22:35 | 25.90084 | -79.70214 | 38018 ft | 390 kts | 279° |
| 2026-05-04 22:35 | 25.91466 | -79.76068 | 37543 ft | 395 kts | 280° |
| 2026-05-04 22:35 | 25.92296 | -79.78977 | 37002 ft | 398 kts | 287° |
| 2026-05-04 22:36 | 25.93036 | -79.80839 | 36838 ft | 394 kts | 290° |
| 2026-05-04 22:36 | 25.94408 | -79.83466 | 36589 ft | 395 kts | 296° |
| 2026-05-04 22:36 | 25.95885 | -79.86064 | 36357 ft | 401 kts | 296° |
| 2026-05-04 22:36 | 25.97385 | -79.88701 | 36128 ft | 407 kts | 296° |
| 2026-05-04 22:37 | 25.98904 | -79.91383 | 35881 ft | 411 kts | 296° |
| 2026-05-04 22:37 | 26.00422 | -79.94071 | 35339 ft | 411 kts | 296° |
| 2026-05-04 22:37 | 26.01941 | -79.96768 | 34772 ft | 410 kts | 296° |
| 2026-05-04 22:37 | 26.03450 | -79.99457 | 34125 ft | 412 kts | 297° |
| 2026-05-04 22:38 | 26.04970 | -80.02170 | 33383 ft | 413 kts | 297° |
| 2026-05-04 22:38 | 26.06470 | -80.04850 | 32757 ft | 412 kts | 297° |
| 2026-05-04 22:38 | 26.07976 | -80.07540 | 32283 ft | 408 kts | 297° |
| 2026-05-04 22:38 | 26.09467 | -80.10204 | 31802 ft | 404 kts | 297° |
| 2026-05-04 22:39 | 26.10941 | -80.12843 | 31332 ft | 400 kts | 297° |
| 2026-05-04 22:39 | 26.12402 | -80.15457 | 30870 ft | 396 kts | 297° |
| 2026-05-04 22:39 | 26.13865 | -80.18039 | 30422 ft | 394 kts | 301° |
| 2026-05-04 22:39 | 26.15741 | -80.20287 | 29991 ft | 399 kts | 315° |
| 2026-05-04 22:40 | 26.18057 | -80.21969 | 29794 ft | 398 kts | 326° |
| 2026-05-04 22:40 | 26.20562 | -80.23317 | 29608 ft | 405 kts | 328° |
| 2026-05-04 22:40 | 26.23163 | -80.24641 | 29407 ft | 415 kts | 328° |
| 2026-05-04 22:40 | 26.25803 | -80.25969 | 29235 ft | 418 kts | 328° |
| 2026-05-04 22:41 | 26.28450 | -80.27305 | 29003 ft | 416 kts | 328° |
| 2026-05-04 22:41 | 26.31077 | -80.28646 | 28801 ft | 414 kts | 328° |
| 2026-05-04 22:41 | 26.33686 | -80.29992 | 28614 ft | 412 kts | 328° |
| 2026-05-04 22:41 | 26.36280 | -80.31341 | 28400 ft | 410 kts | 328° |
| 2026-05-04 22:42 | 26.38855 | -80.32685 | 28209 ft | 407 kts | 328° |
| 2026-05-04 22:42 | 26.41411 | -80.34022 | 28027 ft | 404 kts | 327° |
| 2026-05-04 22:42 | 26.43954 | -80.35354 | 27843 ft | 402 kts | 327° |
| 2026-05-04 22:42 | 26.46485 | -80.36680 | 27661 ft | 401 kts | 327° |
| 2026-05-04 22:43 | 26.49009 | -80.38005 | 27479 ft | 401 kts | 327° |
| 2026-05-04 22:43 | 26.51532 | -80.39328 | 27298 ft | 401 kts | 327° |
| 2026-05-04 22:43 | 26.54056 | -80.40652 | 27118 ft | 401 kts | 328° |
| 2026-05-04 22:43 | 26.56582 | -80.41979 | 26949 ft | 402 kts | 328° |
| 2026-05-04 22:44 | 26.59114 | -80.43308 | 26755 ft | 402 kts | 328° |
| 2026-05-04 22:44 | 26.61651 | -80.44639 | 26564 ft | 403 kts | 328° |
| 2026-05-04 22:44 | 26.64208 | -80.45864 | 26374 ft | 406 kts | 332° |
| 2026-05-04 22:44 | 26.66861 | -80.46979 | 26177 ft | 408 kts | 333° |
| 2026-05-04 22:45 | 26.69532 | -80.48047 | 25992 ft | 408 kts | 333° |
| 2026-05-04 22:45 | 26.74860 | -80.50174 | 25613 ft | 405 kts | 333° |
| 2026-05-04 22:45 | 26.77504 | -80.51247 | 25421 ft | 403 kts | 333° |
| 2026-05-04 22:46 | 26.80127 | -80.52321 | 25229 ft | 398 kts | 333° |
| 2026-05-04 22:46 | 26.82706 | -80.53382 | 24880 ft | 393 kts | 333° |
| 2026-05-04 22:46 | 26.85261 | -80.54439 | 24439 ft | 390 kts | 333° |
| 2026-05-04 22:46 | 26.87797 | -80.55491 | 23990 ft | 389 kts | 333° |
| 2026-05-04 22:47 | 26.90336 | -80.56546 | 23446 ft | 389 kts | 333° |
| 2026-05-04 22:47 | 26.92869 | -80.57598 | 23001 ft | 385 kts | 333° |
| 2026-05-04 22:47 | 26.95346 | -80.58623 | 22748 ft | 379 kts | 333° |
| 2026-05-04 22:47 | 26.97795 | -80.59638 | 22514 ft | 372 kts | 333° |
| 2026-05-04 22:48 | 27.00229 | -80.60651 | 22308 ft | 376 kts | 333° |
| 2026-05-04 22:48 | 27.02697 | -80.61682 | 22080 ft | 381 kts | 333° |
| 2026-05-04 22:48 | 27.05189 | -80.62719 | 21861 ft | 381 kts | 333° |
| 2026-05-04 22:48 | 27.07668 | -80.63748 | 21628 ft | 378 kts | 333° |
| 2026-05-04 22:49 | 27.10130 | -80.64770 | 21412 ft | 376 kts | 333° |
| 2026-05-04 22:49 | 27.12576 | -80.65789 | 21195 ft | 374 kts | 333° |
| 2026-05-04 22:49 | 27.14982 | -80.66797 | 20984 ft | 372 kts | 333° |
| 2026-05-04 22:49 | 27.17406 | -80.67813 | 20788 ft | 371 kts | 333° |
| 2026-05-04 22:50 | 27.19851 | -80.68840 | 20571 ft | 371 kts | 333° |
| 2026-05-04 22:50 | 27.22234 | -80.69840 | 20353 ft | 370 kts | 333° |
| 2026-05-04 22:50 | 27.24646 | -80.70853 | 20135 ft | 370 kts | 333° |
| 2026-05-04 22:50 | 27.27055 | -80.71865 | 19924 ft | 369 kts | 333° |
| 2026-05-04 22:51 | 27.29467 | -80.72879 | 19710 ft | 369 kts | 333° |
| 2026-05-04 22:51 | 27.31876 | -80.73891 | 19499 ft | 368 kts | 333° |
| 2026-05-04 22:51 | 27.34265 | -80.74896 | 19285 ft | 368 kts | 333° |
| 2026-05-04 22:51 | 27.36661 | -80.75903 | 19080 ft | 367 kts | 333° |
| 2026-05-04 22:52 | 27.39065 | -80.76927 | 18623 ft | 371 kts | 333° |
| 2026-05-04 22:52 | 27.41474 | -80.77970 | 18130 ft | 371 kts | 333° |
| 2026-05-04 22:52 | 27.43880 | -80.79015 | 17606 ft | 369 kts | 333° |
| 2026-05-04 22:52 | 27.46268 | -80.80052 | 17094 ft | 367 kts | 334° |
| 2026-05-04 22:53 | 27.48645 | -80.81083 | 16586 ft | 365 kts | 334° |
| 2026-05-04 22:53 | 27.51008 | -80.82108 | 16102 ft | 363 kts | 335° |
| 2026-05-04 22:53 | 27.53358 | -80.83127 | 15627 ft | 361 kts | 335° |
| 2026-05-04 22:53 | 27.55696 | -80.84141 | 15149 ft | 359 kts | 335° |
| 2026-05-04 22:54 | 27.57997 | -80.85198 | 14769 ft | 354 kts | 333° |
| 2026-05-04 22:54 | 27.60218 | -80.86342 | 14424 ft | 348 kts | 332° |
| 2026-05-04 22:54 | 27.62399 | -80.87504 | 14087 ft | 343 kts | 332° |
| 2026-05-04 22:54 | 27.64539 | -80.88649 | 13744 ft | 339 kts | 332° |
| 2026-05-04 22:55 | 27.66659 | -80.89779 | 13382 ft | 335 kts | 332° |
| 2026-05-04 22:55 | 27.68761 | -80.90892 | 13045 ft | 333 kts | 332° |
| 2026-05-04 22:55 | 27.70850 | -80.91995 | 12715 ft | 330 kts | 332° |
| 2026-05-04 22:55 | 27.72927 | -80.93088 | 12393 ft | 328 kts | 332° |
| 2026-05-04 22:56 | 27.74992 | -80.94173 | 12073 ft | 327 kts | 332° |
| 2026-05-04 22:56 | 27.77049 | -80.95254 | 11766 ft | 325 kts | 332° |
| 2026-05-04 22:56 | 27.79102 | -80.96333 | 11444 ft | 326 kts | 332° |
| 2026-05-04 22:56 | 27.81127 | -80.97397 | 11135 ft | 324 kts | 332° |
| 2026-05-04 22:57 | 27.83159 | -80.98465 | 10825 ft | 320 kts | 332° |
| 2026-05-04 22:57 | 27.85190 | -80.99533 | 10506 ft | 316 kts | 332° |
| 2026-05-04 22:57 | 27.87177 | -81.00578 | 10211 ft | 313 kts | 332° |
| 2026-05-04 22:57 | 27.89118 | -81.01599 | 9924 ft | 310 kts | 332° |
| 2026-05-04 22:58 | 27.91028 | -81.02603 | 9925 ft | 296 kts | 332° |
| 2026-05-04 22:58 | 27.92876 | -81.03574 | 9901 ft | 283 kts | 331° |
| 2026-05-04 22:58 | 27.94662 | -81.04450 | 9728 ft | 278 kts | 335° |
| 2026-05-04 22:58 | 27.96447 | -81.05206 | 9436 ft | 277 kts | 336° |
| 2026-05-04 22:59 | 27.98259 | -81.05951 | 9143 ft | 277 kts | 336° |
| 2026-05-04 22:59 | 28.00064 | -81.06696 | 8845 ft | 276 kts | 336° |
| 2026-05-04 22:59 | 28.01861 | -81.07447 | 8544 ft | 275 kts | 336° |
| 2026-05-04 22:59 | 28.03678 | -81.08212 | 8250 ft | 275 kts | 336° |
| 2026-05-04 23:00 | 28.05415 | -81.08945 | 8252 ft | 266 kts | 336° |
| 2026-05-04 23:00 | 28.07139 | -81.09674 | 8296 ft | 265 kts | 336° |
| 2026-05-04 23:00 | 28.08885 | -81.10414 | 8305 ft | 268 kts | 336° |
| 2026-05-04 23:00 | 28.10621 | -81.11139 | 8258 ft | 262 kts | 336° |
| 2026-05-04 23:01 | 28.12311 | -81.11857 | 8075 ft | 256 kts | 332° |
| 2026-05-04 23:01 | 28.13646 | -81.13130 | 7617 ft | 254 kts | 296° |
| 2026-05-04 23:01 | 28.14029 | -81.15013 | 7351 ft | 242 kts | 268° |
| 2026-05-04 23:01 | 28.13912 | -81.16893 | 7057 ft | 236 kts | 262° |
| 2026-05-04 23:02 | 28.13723 | -81.18712 | 6862 ft | 227 kts | 267° |
| 2026-05-04 23:02 | 28.14114 | -81.20410 | 6541 ft | 228 kts | 301° |
| 2026-05-04 23:02 | 28.15132 | -81.21778 | 6252 ft | 227 kts | 314° |
| 2026-05-04 23:02 | 28.16310 | -81.22962 | 5868 ft | 225 kts | 316° |
| 2026-05-04 23:03 | 28.17497 | -81.24130 | 5419 ft | 225 kts | 315° |
| 2026-05-04 23:03 | 28.18671 | -81.25297 | 4977 ft | 225 kts | 316° |
| 2026-05-04 23:03 | 28.19841 | -81.26471 | 4525 ft | 224 kts | 317° |
| 2026-05-04 23:03 | 28.21032 | -81.27617 | 4127 ft | 226 kts | 328° |
| 2026-05-04 23:04 | 28.22501 | -81.28060 | 3841 ft | 217 kts | 4° |
| 2026-05-04 23:04 | 28.24004 | -81.28011 | 3542 ft | 216 kts | 2° |
| 2026-05-04 23:04 | 28.25497 | -81.28051 | 3273 ft | 213 kts | 2° |
| 2026-05-04 23:04 | 28.26967 | -81.28079 | 2991 ft | 209 kts | 3° |
| 2026-05-04 23:05 | 28.28398 | -81.28096 | 2714 ft | 203 kts | 4° |
| 2026-05-04 23:05 | 28.29795 | -81.28110 | 2447 ft | 198 kts | 5° |
| 2026-05-04 23:05 | 28.31158 | -81.28124 | 2185 ft | 193 kts | 5° |
| 2026-05-04 23:05 | 28.32462 | -81.28138 | 1960 ft | 181 kts | 4° |
| 2026-05-04 23:06 | 28.33688 | -81.28151 | 1706 ft | 171 kts | 5° |
| 2026-05-04 23:06 | 28.34830 | -81.28163 | 1506 ft | 157 kts | 6° |
| 2026-05-04 23:06 | 28.35891 | -81.28173 | 1286 ft | 150 kts | 4° |
| 2026-05-04 23:06 | 28.36923 | -81.28183 | 1089 ft | 151 kts | 7° |
| 2026-05-04 23:07 | 28.37957 | -81.28192 | 890 ft | 148 kts | 5° |
| 2026-05-04 23:07 | 28.38998 | -81.28203 | 719 ft | 151 kts | 7° |
| 2026-05-04 23:07 | 28.40070 | -81.28207 | 510 ft | 155 kts | 6° |
| 2026-05-04 23:07 | 28.41126 | -81.28217 | 278 ft | 150 kts | 7° |
| 2026-05-04 23:08 | 28.42170 | -81.28236 | 105 ft | 146 kts | 2° |
| 2026-05-04 23:08 | 28.43078 | -81.28246 | 94 ft | 111 kts | 359° |
| 2026-05-04 23:08 | 28.43580 | -81.28249 | 95 ft | 42 kts | 359° |
| 2026-05-04 23:08 | 28.43777 | -81.28257 | 99 ft | 19 kts | 338° |
| 2026-05-04 23:09 | 28.43869 | -81.28360 | 96 ft | 19 kts | 294° |
| 2026-05-04 23:09 | 28.43875 | -81.28504 | 97 ft | 18 kts | 270° |
| 2026-05-04 23:09 | 28.43873 | -81.28644 | 100 ft | 17 kts | 269° |
| 2026-05-04 23:09 | 28.43872 | -81.28780 | 106 ft | 17 kts | 269° |
| 2026-05-04 23:10 | 28.43872 | -81.28912 | 107 ft | 17 kts | 269° |
| 2026-05-04 23:10 | 28.43871 | -81.29046 | 106 ft | 17 kts | 269° |
| 2026-05-04 23:10 | 28.43870 | -81.29180 | 99 ft | 12 kts | 270° |
| 2026-05-04 23:10 | 28.43839 | -81.29257 | 95 ft | 12 kts | 199° |
| 2026-05-04 23:11 | 28.43759 | -81.29263 | 97 ft | 11 kts | 179° |
| 2026-05-04 23:11 | 28.43681 | -81.29261 | 101 ft | 11 kts | 179° |
| 2026-05-04 23:11 | 28.43602 | -81.29262 | 99 ft | 11 kts | 182° |
| 2026-05-04 23:11 | 28.43553 | -81.29319 | 96 ft | 12 kts | 265° |
| 2026-05-04 23:12 | 28.43552 | -81.29420 | 99 ft | 14 kts | 270° |
| 2026-05-04 23:12 | 28.43551 | -81.29545 | 99 ft | 16 kts | 269° |
| 2026-05-04 23:12 | 28.43549 | -81.29674 | 94 ft | 16 kts | 270° |
| 2026-05-04 23:12 | 28.43549 | -81.29795 | 94 ft | 15 kts | 270° |
| 2026-05-04 23:13 | 28.43587 | -81.29884 | 94 ft | 14 kts | 348° |
| 2026-05-04 23:13 | 28.43691 | -81.29891 | 95 ft | 18 kts | 351° |
| 2026-05-04 23:13 | 28.43791 | -81.29951 | 93 ft | 16 kts | 310° |
| 2026-05-04 23:13 | 28.43827 | -81.30065 | 94 ft | 15 kts | 273° |
| 2026-05-04 23:14 | 28.43784 | -81.30172 | 93 ft | 15 kts | 232° |
| 2026-05-04 23:14 | 28.43722 | -81.30262 | 94 ft | 14 kts | 231° |
| 2026-05-04 23:14 | 28.43662 | -81.30349 | 94 ft | 14 kts | 232° |
| 2026-05-04 23:14 | 28.43617 | -81.30402 | 95 ft | 6 kts | 191° |
| 2026-05-04 23:15 | 28.43585 | -81.30379 | 94 ft | 5 kts | 137° |
| 2026-05-04 23:15 | 28.43581 | -81.30374 | 94 ft | 0 kts | 137° |